aviador You're here:

OTHH Decoded Metar

in
Report Time2017-09-24 22:00:00
UTC Time2017-09-24 23:06:52
Flight Rules Old
Wind040° at 05 kt
W.Decomp.*RWY 34: 2.5 kt HW 4.3 kt RCW
W.Rank040° ranks 14
Current wind is below 040° avg. (7.4)
Visibility9999 m
Phenomena:N/A
Clouds:N/A
Expected CloudBase > 2,800 ft AGL from Temp-Dew spread
CeilingNone
Temp31°C
Dew Point24°C (66% RH)
Heat Index36.4°C
QNH1007 hPa
Raw Report
METAR OTHH 242200Z AUTO 04005KT CAVOK 31/24 Q1007 NOSIG=

Extra information for OTHH:More info

Social comments